Tiempo atmosférico en la estación meteorológica de Abla, Almería (885 m.)



Fecha
DESCASC
Temp. máxima en grados centígrados (hora)
DESCASC
Temp. mínima en grados centígrados (hora)
DESCASC
Temp. media en grados centígrados
DESCASC
Racha de viento máxima en m/sg (hora)
DESCASC
Velocidad máxima media en intervalos de 10 minutos(hora)
DESCASC
Precipitaciones diarias en mm
DESCASC
Precipitaciones de 00:00 a 06:00 en mm
DESCASC
Precipitaciones de 06:00 a 12:00 en mm
DESCASC
Precipitaciones de 12:00 a 18:00 en mm
DESCASC
Precipitaciones de 18:00 a 24:00 en mm
DESCASC
13-10-2019 27 (14:20) 13.7 (06:50) 20.3 11.11 (16:50) 4.44 (16:00) 0 0 0 0 0
12-10-2019 25 (16:10) 15.1 (09:00) 20.1 10.56 (17:40) 5.28 (17:40) 0 0 0 0 0
11-10-2019 26.5 (14:10) 14.4 (07:30) 20.4 11.39 (17:30) 5.83 (14:20) 0 0 0 0 0
10-10-2019 25 (15:00) 14.4 (00:00) 19.7 10.56 (16:40) 5.28 (14:10) 0 0 0 0 0
09-10-2019 26.8 (15:50) 16 (00:00) 21.4 8.89 (17:00) 3.89 (17:00) 0 0 0 0 0
08-10-2019 25.2 (15:30) 14.6 (00:00) 19.9 8.61 (13:30) 4.72 (13:20) 0 0 0 0 0
07-10-2019 32.5 (16:10) 18.6 (00:00) 25.6 8.06 (16:50) 3.33 (18:30) 0 0 0 0 0
06-10-2019 30.9 (15:20) 17.4 (00:00) 24.1 7.5 (16:20) 3.33 (15:50) 0 0 0 0 0
05-10-2019 28.9 (14:20) 17 (00:00) 22.9 7.5 (13:40) 3.33 (14:40) 0 0 0 0 0
04-10-2019 28.2 (14:10) 15.4 (00:00) 21.8 8.06 (17:10) 3.89 (15:00) 0 0 0 0 0
03-10-2019 28.9 (14:40) 15 (00:00) 21.9 7.5 (15:40) 3.06 (04:10) 0 0 0 0 0
02-10-2019 30.9 (16:00) 15.8 (00:00) 23.3 8.61 (00:50) 4.72 (00:50) 0 0 0 0 0
01-10-2019 31.9 (14:20) 18 (00:00) 24.9 8.06 (11:20) 3.06 (20:30) 0 0 0 0 0
30-09-2019 30.7 (16:30) 19.1 (00:00) 24.9 6.11 (14:20) 3.33 (13:30) 0 0 0 0 0
29-09-2019 29.7 (14:50) 16.1 (00:00) 22.9 10 (16:10) 3.61 (16:10) 0 0 0 0 0
28-09-2019 29.3 (11:50) 17.5 (00:00) 23.4 9.17 (16:00) 4.44 (16:30) 0 0 0 0 0
27-09-2019 30 (12:50) 16.7 (00:00) 23.4 6.67 (14:40) 3.33 (14:40) 0 0 0 0 0
26-09-2019 27.9 (16:00) 15.2 (00:00) 21.5 8.89 (13:20) 3.61 (14:30) 0 0 0 0 0
25-09-2019 31.5 (15:10) 17.6 (00:00) 24.6 6.94 (17:10) 3.33 (17:10) 0 0 0 0 0
24-09-2019 32.2 (16:00) 16.4 (00:00) 24.3 7.5 (14:00) 3.06 (17:30) 0 0 0 0 0
23-09-2019 25.7 (15:10) 14.8 (00:00) 20.3 8.33 (15:30) 3.61 (13:30) 0 0 0 0 0
22-09-2019 29.9 (15:20) 16.6 (00:00) 23.3 5.83 (17:40) 2.78 (17:10) 0 0 0 0 0
21-09-2019 25.4 (16:00) 16.6 (00:00) 21 8.33 (14:30) 3.89 (14:30) 0 0 0 0 0
20-09-2019 25 (16:10) 16.8 (00:00) 20.9 12.5 (15:00) 5.28 (15:00) 0 0 0 0 0
19-09-2019 26.6 (14:50) 16.4 (00:00) 21.5 9.72 (16:50) 4.72 (15:30) 0 0 0 0 0
18-09-2019 29 (15:10) 16.3 (00:00) 22.6 7.5 (17:20) 3.89 (17:20) 0 0 0 0 0
17-09-2019 27 (15:10) 17.3 (00:00) 22.1 11.67 (16:00) 5.56 (12:00) 0 0 0 0 0
16-09-2019 26.7 (12:40) 16.8 (00:00) 21.8 8.89 (13:30) 4.17 (14:40) 0 0 0 0 0

Gráficas

Temp. máximas Temp. mínimas Temp. medias Precipitaciones Rachas de viento máximas Velocidades máximas media en intervalos de 10 minutos

Datos horarios

Fecha y hora oficial Temperatura (ºC) Velocidad del viento (km/h) Dirección del viento Racha (km/h) Dirección de racha Precipitación (mm) Presión (hPa) Tendencia (hPa) Humedad (%)
2019-10-15 23:00:00 12.8 0 Calma 7 Oeste 0 921.8 1.2 50
2019-10-15 22:00:00 13.6 0 Calma 8 Nordeste 0 921.8 1.9 53
2019-10-15 21:00:00 14.1 3 Nordeste 15 Nordeste 0 921.3 2.1 60
2019-10-15 20:00:00 15.3 5 Nordeste 19 Nordeste 0 920.6 1.3 50
2019-10-15 19:00:00 17.2 11 Nordeste 23 Nordeste 0 919.9 0.4 38
2019-10-15 18:00:00 19.6 3 Nordeste 16 Nordeste 0 919.2 -0.5 29
2019-10-15 17:00:00 19.5 8 Nordeste 18 Este 0 919.3 -0.9 28
2019-10-15 16:00:00 21.2 7 Nordeste 19 Nordeste 0 919.5 -1.3 24
2019-10-15 15:00:00 22.4 0 Calma 13 Norte 0 919.7 -1.2 20
2019-10-15 14:00:00 20.6 3 Nordeste 14 Este 0 920.2 -0.6 21
2019-10-15 13:00:00 19.4 0 Calma 18 Noroeste 0 920.8 0.2 23
2019-10-15 12:00:00 18.4 5 Norte 21 Norte 0 920.9 0.6 30
2019-10-15 11:00:00 16.5 9 Noroeste 21 Norte 0 920.8 1 42
2019-10-15 10:00:00 13.9 12 Noroeste 21 Norte 0 920.6 1 53
2019-10-15 09:00:00 11.4 4 Norte 15 Noroeste 0 920.3 0.8 65
2019-10-15 08:00:00 10.3 3 Norte 22 Noroeste 0 919.8 0.2 68
2019-10-15 07:00:00 11.1 9 Noroeste 24 Norte 0 919.6 0.1 65
2019-10-15 06:00:00 12 10 Noroeste 28 Norte 0 919.5 0 64
2019-10-15 05:00:00 12.3 10 Noroeste 23 Noroeste 0 919.6 0.7 66
2019-10-15 04:00:00 13.2 10 Noroeste 25 Norte 0 919.5 0.7 65
2019-10-15 03:00:00 13.8 11 Noroeste 27 Noroeste 0 919.5 0.9 69
2019-10-15 02:00:00 14.3 8 Noroeste 19 Norte 0 918.9 0.6 61
2019-10-15 01:00:00 14.4 7 Noroeste 18 Noroeste 0 918.8 1.1 57
2019-10-15 00:00:00 14.4 5 Noroeste 21 Noroeste 0 918.6 1.3 53
2019-10-14 23:00:00 15.4 7 Noroeste 21 Norte 0 918.3 1.8 54
2019-10-14 22:00:00 16.2 9 Noroeste 23 Norte 0 917.7 1.8 53
2019-10-14 21:00:00 17.1 10 Noroeste 29 Noroeste 0 917.3 1.7 52
2019-10-14 20:00:00 18.7 12 Noroeste 26 Noroeste 0 916.5 1.3 46
2019-10-14 19:00:00 20.2 8 Noroeste 28 Norte 0 915.9 1.1 43
2019-10-14 18:00:00 20.8 10 Norte 24 Noroeste 0 915.6 0.7 44
2019-10-14 17:00:00 22.3 8 Noroeste 23 Noroeste 0 915.2 -0.5 43
2019-10-14 16:00:00 23.3 7 Noroeste 18 Norte 0 914.8 -1.4 39
2019-10-14 15:00:00 25.2 6 Noroeste 19 Norte 0 914.9 -0.6 34
2019-10-14 14:00:00 25.8 9 Norte 23 Norte 0 915.7 -1.4 34
2019-10-14 13:00:00 25.5 6 Noroeste 23 Este 0 916.2 -0.2 32
2019-10-14 12:00:00 24.8 9 Este 20 Este 0 915.5 -0.9 37
2019-10-14 11:00:00 19.7 3 Nordeste 11 Nordeste 0 917.1 1.5 41
2019-10-14 10:00:00 20.2 0 Calma 11 Norte 0 916.4 1.2 40
2019-10-14 09:00:00 19 0 Calma 10 Noroeste 0 916.4 0.6 40
2019-10-14 08:00:00 18.1 0 Calma 14 Oeste 0 915.6 -0.5 42
2019-10-14 07:00:00 17 0 Calma 12 Norte 0 915.2 -1.5 46
2019-10-14 06:00:00 18.2 3 Noroeste 12 Oeste 0 915.8 -1.7 44
2019-10-14 05:00:00 15.8 7 Noroeste 17 Noroeste 0 916.1 -2.2 52
2019-10-14 04:00:00 15.3 0 Calma 2 Oeste 0 916.7 -2.1 53
2019-10-14 03:00:00 15.7 0 Calma 0 Calma 0 917.5 -1.5 53
2019-10-14 02:00:00 16.2 0 Calma 5 Noroeste 0 918.3 -0.3 50
2019-10-14 01:00:00 17 0 Calma 3 Noroeste 0 918.8 0.4 46
2019-10-14 00:00:00 17.3 0 Calma 3 Noroeste 0 919 0.7 49
2019-10-13 23:00:00 19 0 Calma 5 Noroeste 0 918.6 0.4 44
2019-10-13 22:00:00 19.8 0 Calma 8 Oeste 0 918.4 0.7 47
2019-10-13 21:00:00 20.5 0 Calma 6 Sur 0 918.3 0.7 51
2019-10-13 20:00:00 21.3 0 Calma 25 Nordeste 0 918.2 0.7 52
2019-10-13 19:00:00 22.3 10 Nordeste 35 Nordeste 0 917.7 0.2 54
2019-10-13 18:00:00 23.3 14 Nordeste 33 Nordeste 0 917.6 -0.3 54
2019-10-13 17:00:00 24.8 13 Este 40 Nordeste 0 917.5 -1.1 49
2019-10-13 16:00:00 26 16 Nordeste 33 Este 0 917.5 -1.8 42
2019-10-13 15:00:00 26.3 14 Nordeste 33 Nordeste 0 917.9 -1.4 38
2019-10-13 14:00:00 25.7 12 Nordeste 32 Nordeste 0 918.6 -0.9 37
2019-10-13 13:00:00 24.6 12 Nordeste 33 Nordeste 0 919.3 0 38
2019-10-13 12:00:00 23.6 13 Este 25 Este 0 919.3 0.3 40
2019-10-13 11:00:00 21.8 3 Nordeste 9 Nordeste 0 919.5 1 45
2019-10-13 10:00:00 19.5 0 Calma 4 Noroeste 0 919.3 1 49
2019-10-13 09:00:00 15.6 0 Calma 10 Oeste 0 919 0.6 62
2019-10-13 08:00:00 15.7 0 Calma 10 Oeste 0 918.5 0.1 60
2019-10-13 07:00:00 14.6 0 Calma 5 Oeste 0 918.3 -0.2 68
2019-10-13 06:00:00 13.9 0 Calma 11 Oeste 0 918.4 -0.5 75
2019-10-13 05:00:00 14.4 0 Calma 8 Noroeste 0 918.4 -0.9 75
2019-10-13 04:00:00 14.7 0 Calma 5 Noroeste 0 918.5 -1 76
2019-10-13 03:00:00 16.7 0 Calma 6 Oeste 0 918.9 -0.6 65
2019-10-13 02:00:00 17.3 0 Calma 6 Oeste 0 919.3 0 66
2019-10-13 01:00:00 16.7 0 Calma 5 Noroeste 0 919.5 0.8 62
2019-10-13 00:00:00 17.8 0 Calma 4 Noroeste 0 919.5 1 60
2019-10-12 23:00:00 18.1 0 Calma 0 Calma 0 919.3 1.2 68
2019-10-12 22:00:00 19 0 Calma 16 Este 0 918.7 1 64
2019-10-12 21:00:00 20.1 8 Este 21 Este 0 918.5 1 62
2019-10-12 20:00:00 21.4 11 Nordeste 28 Este 0 918.1 0.5 53
2019-10-12 19:00:00 22.5 13 Nordeste 34 Este 0 917.7 -0.1 45
2019-10-12 18:00:00 23.2 19 Este 38 Nordeste 0 917.5 -1.1 44
2019-10-12 17:00:00 23.9 18 Nordeste 35 Este 0 917.6 -1.9 41
2019-10-12 16:00:00 24.4 15 Nordeste 38 Nordeste 0 917.8 -2.1 38
2019-10-12 15:00:00 23.6 15 Nordeste 33 Este 0 918.6 -1.4 41
2019-10-12 14:00:00 21.6 15 Este 32 Este 0 919.5 -0.5 48
2019-10-12 13:00:00 21.6 10 Nordeste 31 Este 0 919.9 0.3 43
2019-10-12 12:00:00 21.5 15 Nordeste 33 Este 0 920 0.8 45
2019-10-12 11:00:00 19.6 4 Este 14 Este 0 920 0.7 49
2019-10-12 10:00:00 17.4 0 Calma 8 Norte 0 919.6 0.5 55
2019-10-12 09:00:00 15.2 0 Calma 5 Oeste 0 919.2 0 60
2019-10-12 08:00:00 15.3 0 Calma 0 Calma 0 919.3 0 59
2019-10-12 07:00:00 15.8 0 Calma 5 Oeste 0 919.1 -0.5 58
2019-10-12 06:00:00 16.7 0 Calma 2 Norte 0 919.2 -0.7 59
2019-10-12 05:00:00 16.8 0 Calma 7 Noroeste 0 919.3 -1.1 66
2019-10-12 04:00:00 17.2 0 Calma 4 Noroeste 0 919.6 -1.2 60
2019-10-12 03:00:00 17.3 0 Calma 0 Calma 0 919.9 -1.2 66
2019-10-12 02:00:00 18 0 Calma 0 Calma 0 920.4 -0.7 60
2019-10-12 01:00:00 17.4 0 Calma 11 Norte 0 920.8 0 59
2019-10-12 00:00:00 18.4 0 Calma 4 Norte 0 921.1 0.5 56
2019-10-11 23:00:00 18.9 0 Calma 8 Noroeste 0 921.1 0.9 59
2019-10-11 22:00:00 19.4 0 Calma 9 Este 0 920.8 0.8 65
2019-10-11 21:00:00 20 3 Nordeste 15 Nordeste 0 920.6 0.9 62
2019-10-11 20:00:00 21.1 8 Este 21 Este 0 920.2 0.4 54
2019-10-11 19:00:00 22.4 10 Nordeste 34 Nordeste 0 920 -0.2 44
2019-10-11 18:00:00 23.4 15 Nordeste 41 Este 0 919.7 -0.6 38
2019-10-11 17:00:00 23.9 17 Nordeste 39 Nordeste 0 919.8 -1.2 33
2019-10-11 16:00:00 25.4 17 Nordeste 40 Este 0 920.2 -1.8 28
2019-10-11 15:00:00 25.8 15 Nordeste 40 Este 0 920.3 -2.1 25
2019-10-11 14:00:00 25.2 19 Este 35 Nordeste 0 921 -1.6 25
2019-10-11 13:00:00 24.2 16 Nordeste 30 Nordeste 0 922 -0.3 24
2019-10-11 12:00:00 23.5 13 Nordeste 28 Este 0 922.4 0.7 25
2019-10-11 11:00:00 20.7 10 Nordeste 24 Este 0 922.6 1 42
2019-10-11 10:00:00 18.1 8 Nordeste 19 Nordeste 0 922.3 0.8 53
2019-10-11 09:00:00 16 8 Nordeste 17 Nordeste 0 921.7 0.1 75
2019-10-11 08:00:00 14.7 4 Nordeste 16 Nordeste 0 921.6 -0.1 88
2019-10-11 07:00:00 14.7 3 Este 11 Este 0 921.5 -0.4 93
2019-10-11 06:00:00 15 2 Este 17 Este 0 921.6 -0.4 93
2019-10-11 05:00:00 15.7 7 Nordeste 19 Nordeste 0 921.7 -0.3 93
2019-10-11 04:00:00 15.8 10 Este 22 Nordeste 0 921.9 -0.6 93
2019-10-11 03:00:00 15.8 6 Nordeste 20 Nordeste 0 922 -0.7 93
2019-10-11 02:00:00 15.8 0 Calma 11 Este 0 922 -0.4 93
2019-10-11 01:00:00 16.4 0 Calma 12 Nordeste 0 922.5 0.3 94
2019-10-11 00:00:00 16.5 0 Calma 9 Nordeste 0 922.7 1.1 93
2019-10-10 23:00:00 17 0 Calma 12 Nordeste 0 922.4 1.3 90
2019-10-10 22:00:00 17.7 5 Nordeste 17 Este 0 922.2 1.5 88
2019-10-10 21:00:00 18.6 5 Nordeste 23 Este 0 921.6 0.9 82
2019-10-10 20:00:00 19.9 10 Nordeste 24 Este 0 921.1 0.6 68
2019-10-10 19:00:00 21.7 12 Este 30 Nordeste 0 920.7 0 53
2019-10-10 18:00:00 23.1 15 Este 32 Nordeste 0 920.7 0.2 49
2019-10-10 17:00:00 23.8 16 Este 38 Este 0 920.5 -0.7 46
2019-10-10 16:00:00 24.7 18 Este 37 Nordeste 0 920.7 -1.2 44
2019-10-10 15:00:00 24.5 15 Nordeste 36 Este 0 920.5 -1.5 44
2019-10-10 14:00:00 23.7 18 Este 37 Este 0 921.2 -1 44
2019-10-10 13:00:00 22.8 14 Nordeste 30 Nordeste 0 921.9 -0.4 44
2019-10-10 12:00:00 21.4 16 Nordeste 27 Este 0 922 0.7 47
2019-10-10 11:00:00 20.2 10 Nordeste 21 Este 0 922.2 1.4 56
2019-10-10 10:00:00 18.2 4 Este 12 Este 0 922.3 2 76
2019-10-10 09:00:00 16 0 Calma 3 Norte 0 921.3 1.1 86
2019-10-10 08:00:00 14.8 0 Calma 0 Calma 0 920.8 1 88
2019-10-10 07:00:00 15 0 Calma 2 Norte 0 920.3 0.5 81
2019-10-10 06:00:00 15.9 0 Calma 2 Norte 0 920.2 0.1 74
2019-10-10 05:00:00 16 0 Calma 0 Calma 0 919.8 -0.1 73
2019-10-10 04:00:00 17.3 0 Calma 2 Noroeste 0 919.8 -0.5 68
2019-10-10 03:00:00 18.1 0 Calma 0 Calma 0 920.1 0 64
2019-10-10 02:00:00 17.4 0 Calma 0 Calma 0 919.9 -0.1 67
2019-10-10 01:00:00 17.7 0 Calma 0 Calma 0 920.3 0.8 68
2019-10-10 00:00:00 19.3 0 Calma 6 Norte 0 920.1 1 64
2019-10-09 23:00:00 19.7 0 Calma 2 Oeste 0 920 1.4 62
2019-10-09 22:00:00 19.9 0 Calma 2 Nordeste 0 919.5 1.2 60
2019-10-09 21:00:00 20.6 0 Calma 7 Nordeste 0 919.1 1.3 60
2019-10-09 20:00:00 21.8 4 Nordeste 19 Nordeste 0 918.6 0.8 55
2019-10-09 19:00:00 23.5 10 Este 23 Este 0 918.3 0.2 48
2019-10-09 18:00:00 24.5 10 Nordeste 28 Nordeste 0 917.8 -0.6 46
2019-10-09 17:00:00 25.2 14 Nordeste 32 Nordeste 0 917.8 -1.1 46
2019-10-09 16:00:00 26.5 13 Nordeste 30 Nordeste 0 918.1 -1.2 45
2019-10-09 15:00:00 25.9 10 Nordeste 24 Nordeste 0 918.4 -1 46
2019-10-09 14:00:00 25 11 Nordeste 24 Este 0 918.9 -0.6 49
2019-10-09 13:00:00 23.9 11 Este 23 Nordeste 0 919.3 0.1 53
2019-10-09 12:00:00 23.5 7 Nordeste 17 Nordeste 0 919.4 0.7 55
2019-10-09 11:00:00 22.3 3 Este 8 Este 0 919.5 1.1 57
2019-10-09 10:00:00 20 0 Calma 8 Este 0 919.2 0.9 64
2019-10-09 09:00:00 19.3 0 Calma 14 Norte 0 918.7 0.3 60
2019-10-09 08:00:00 18.7 3 Noroeste 12 Oeste 0 918.4 -0.1 58
2019-10-09 07:00:00 18.4 3 Noroeste 17 Oeste 0 918.3 -0.7 61
2019-10-09 06:00:00 19.8 0 Calma 9 Noroeste 0 918.4 -0.9 59
2019-10-09 05:00:00 16.4 0 Calma 11 Norte 0 918.5 -1 73
2019-10-09 04:00:00 18.5 4 Noroeste 15 Oeste 0 919 -0.9 66
2019-10-09 03:00:00 18.3 6 Oeste 12 Noroeste 0 919.3 -0.8 68
2019-10-09 02:00:00 17.8 0 Calma 9 Noroeste 0 919.5 -0.8 76
2019-10-09 01:00:00 17.7 0 Calma 5 Norte 0 919.9 -0.4 75
2019-10-09 00:00:00 17.4 0 Calma 3 Oeste 0 920.1 0 77
2019-10-08 23:00:00 17.5 0 Calma 3 Oeste 0 920.3 0.3 76
2019-10-08 22:00:00 17.8 0 Calma 9 Este 0 920.3 0.7 74
2019-10-08 21:00:00 18.8 0 Calma 14 Nordeste 0 920.1 0.5 71
2019-10-08 20:00:00 19.5 5 Nordeste 20 Este 0 920 0.2 68
2019-10-08 19:00:00 21.1 8 Este 22 Este 0 919.6 -0.3 66
2019-10-08 18:00:00 22.1 12 Nordeste 26 Este 0 919.6 -0.6 65
2019-10-08 17:00:00 22.6 13 Nordeste 30 Nordeste 0 919.8 -1.3 62
2019-10-08 16:00:00 24.3 15 Nordeste 28 Este 0 919.9 -1.6 56
2019-10-08 15:00:00 24.2 13 Nordeste 29 Este 0 920.2 -1.8 53
2019-10-08 14:00:00 23.1 13 Nordeste 31 Nordeste 0 921.1 -1 55
2019-10-08 13:00:00 22.5 15 Nordeste 29 Nordeste 0 921.5 -0.6 57
2019-10-08 12:00:00 21.6 13 Este 27 Este 0 922 0.4 60
2019-10-08 11:00:00 20.1 12 Nordeste 21 Nordeste 0 922.1 0.9 67
2019-10-08 10:00:00 18.7 0 Calma 0 Calma 0 922.1 1.5 60
2019-10-08 09:00:00 16.2 0 Calma 4 Noroeste 0 921.6 1.1 59
2019-10-08 08:00:00 15.2 0 Calma 3 Nordeste 0 921.2 1.1 59
2019-10-08 07:00:00 14.9 0 Calma 4 Este 0 920.6 0.4 58
2019-10-08 06:00:00 16.3 0 Calma 4 Este 0 920.5 -0.1 55
2019-10-08 05:00:00 15.9 0 Calma 9 Oeste 0 920.1 -0.3 54
2019-10-08 04:00:00 17.1 0 Calma 5 Oeste 0 920.2 -0.4 51
2019-10-08 03:00:00 17.5 0 Calma 8 Noroeste 0 920.6 -0.1 50
2019-10-08 02:00:00 18.7 0 Calma 3 Oeste 0 920.4 0 47
2019-10-08 01:00:00 19.2 0 Calma 4 Oeste 0 920.6 0.6 47
2019-10-08 00:00:00 18.9 0 Calma 0 Calma 0 920.7 1.1 45
2019-10-07 23:00:00 20.2 0 Calma 6 Noroeste 0 920.4 1.2 44
2019-10-07 22:00:00 21 0 Calma 9 Norte 0 920 1.3 42
2019-10-07 21:00:00 22.5 0 Calma 7 Oeste 0 919.6 1.6 41
2019-10-07 20:00:00 23.4 0 Calma 22 Nordeste 0 919.2 0.9 39
2019-10-07 19:00:00 25.1 9 Nordeste 27 Nordeste 0 918.7 0.7 37
2019-10-07 18:00:00 27.5 7 Nordeste 20 Este 0 918 -0.2 35
2019-10-07 17:00:00 27.7 12 Nordeste 29 Nordeste 0 918.3 -0.7 34
2019-10-07 16:00:00 32 2 Norte 18 Sur 0 918 -1.4 27
2019-10-07 15:00:00 31.5 2 Oeste 19 Norte 0 918.2 -2 27
2019-10-07 14:00:00 30.8 5 Norte 20 Norte 0 919 -1.4 27
2019-10-07 13:00:00 30.2 4 Noroeste 18 Noroeste 0 919.4 -0.5 29
2019-10-07 12:00:00 27.8 5 Noroeste 19 Norte 0 920.2 0.6 32
2019-10-07 11:00:00 26.2 5 Noroeste 14 Noroeste 0 920.4 1.3 35
2019-10-07 10:00:00 24.2 0 Calma 18 Noroeste 0 919.9 0.9 36
2019-10-07 09:00:00 20.1 5 Noroeste 13 Noroeste 0 919.6 0.6 39
2019-10-07 08:00:00 18.8 8 Noroeste 16 Noroeste 0 919.1 -0.2 41
2019-10-07 07:00:00 19.1 5 Noroeste 18 Norte 0 919 -0.8 40
2019-10-07 06:00:00 19.1 5 Noroeste 18 Noroeste 0 919 -1.3 41
2019-10-07 05:00:00 19.8 5 Noroeste 17 Norte 0 919.3 -1.5 40
2019-10-07 04:00:00 19.4 4 Norte 17 Noroeste 0 919.8 -1 42
2019-10-07 03:00:00 18.8 8 Noroeste 15 Noroeste 0 920.3 -0.8 42
2019-10-07 02:00:00 21.1 9 Noroeste 19 Norte 0 920.8 -0.2 39
2019-10-07 01:00:00 20.4 6 Norte 16 Norte 0 920.8 0.2 41
2019-10-07 00:00:00 20.2 7 Noroeste 15 Noroeste 0 921.1 0.9 43
2019-10-06 23:00:00 20.9 0 Calma 10 Noroeste 0 921 1.1 45
2019-10-06 22:00:00 20.6 0 Calma 6 Noroeste 0 920.6 0.9 44
2019-10-06 21:00:00 21 0 Calma 9 Nordeste 0 920.2 0.7 44
2019-10-06 20:00:00 22 4 Nordeste 19 Nordeste 0 919.9 0.3 42
2019-10-06 19:00:00 23.8 7 Nordeste 24 Nordeste 0 919.7 0.4 39
2019-10-06 18:00:00 25.3 9 Nordeste 24 Este 0 919.5 -0.2 36
2019-10-06 17:00:00 26.3 10 Nordeste 27 Nordeste 0 919.6 -0.6 35
2019-10-06 16:00:00 28.8 10 Nordeste 25 Nordeste 0 919.3 -1.3 33
2019-10-06 15:00:00 30.6 5 Este 17 Este 0 919.7 -1.1 27
2019-10-06 14:00:00 28.9 3 Nordeste 16 Este 0 920.2 -0.8 31
2019-10-06 13:00:00 27.3 5 Nordeste 17 Nordeste 0 920.6 -0.2 35
2019-10-06 12:00:00 26.6 0 Calma 7 Nordeste 0 920.8 0.1 36
2019-10-06 11:00:00 24.9 3 Norte 13 Noroeste 0 921 1.4 39
2019-10-06 10:00:00 21.1 6 Noroeste 16 Norte 0 920.8 1.2 42
2019-10-06 09:00:00 19.2 2 Norte 15 Norte 0 920.7 1.4 41
2019-10-06 08:00:00 17.7 0 Calma 16 Noroeste 0 919.6 0.3 43
2019-10-06 07:00:00 17.9 5 Noroeste 17 Noroeste 0 919.6 0 43
2019-10-06 06:00:00 18.2 0 Calma 14 Nordeste 0 919.3 -0.4 42
2019-10-06 05:00:00 18.3 3 Noroeste 15 Norte 0 919.3 -0.2 42
2019-10-06 04:00:00 18.4 6 Noroeste 15 Norte 0 919.6 0 45
2019-10-06 03:00:00 19.1 6 Norte 19 Noroeste 0 919.7 0.1 44
2019-10-06 02:00:00 19.2 7 Noroeste 18 Oeste 0 919.5 0.1 45
2019-10-06 01:00:00 19.5 6 Noroeste 18 Norte 0 919.6 0.6 44
2019-10-06 00:00:00 20.7 4 Noroeste 15 Noroeste 0 919.6 0.8 42
2019-10-05 23:00:00 21.4 5 Noroeste 13 Noroeste 0 919.4 1.1 42
2019-10-05 22:00:00 20.7 0 Calma 8 Noroeste 0 919 1.3 44
2019-10-05 21:00:00 21.7 0 Calma 5 Noroeste 0 918.8 1.5 46
2019-10-05 20:00:00 22.5 0 Calma 17 Nordeste 0 918.3 1.4 46
2019-10-05 19:00:00 24 9 Este 26 Nordeste 0 917.7 0.4 41
2019-10-05 18:00:00 25.6 12 Nordeste 26 Nordeste 0 917.3 -0.3 36
2019-10-05 17:00:00 26.8 10 Nordeste 22 Nordeste 0 916.9 -1 35
2019-10-05 16:00:00 27.6 10 Este 24 Este 0 917.3 -1 33
2019-10-05 15:00:00 27.9 12 Nordeste 25 Este 0 917.6 -0.9 31
2019-10-05 14:00:00 27.8 10 Este 27 Sudeste 0 917.9 -0.6 31
2019-10-05 13:00:00 27.4 10 Este 24 Este 0 918.3 -0.1 33
2019-10-05 12:00:00 26.6 4 Este 13 Este 0 918.5 0.4 34
2019-10-05 11:00:00 24.8 0 Calma 5 Norte 0 918.5 0.6 37
2019-10-05 10:00:00 22.1 0 Calma 8 Noroeste 0 918.4 0.6 39
2019-10-05 09:00:00 19.3 6 Noroeste 15 Noroeste 0 918.1 0.4 44
2019-10-05 08:00:00 17.3 6 Norte 15 Noroeste 0 917.9 0.2 46
2019-10-05 07:00:00 17.2 6 Noroeste 15 Noroeste 0 917.8 -0.1 46
2019-10-05 06:00:00 17.5 5 Noroeste 18 Oeste 0 917.7 -0.6 46
2019-10-05 05:00:00 18.2 2 Noroeste 14 Oeste 0 917.7 -0.5 45
2019-10-05 04:00:00 18.5 6 Noroeste 15 Noroeste 0 917.9 -0.6 45
2019-10-05 03:00:00 18.7 4 Noroeste 15 Norte 0 918.3 -0.4 44
2019-10-05 02:00:00 18.9 3 Noroeste 15 Noroeste 0 918.2 -0.4 45
2019-10-05 01:00:00 20.3 3 Norte 17 Noroeste 0 918.5 -0.2 42
2019-10-05 00:00:00 20.8 3 Noroeste 16 Noroeste 0 918.7 0 42
2019-10-04 23:00:00 21.1 0 Calma 9 Noroeste 0 918.6 0.1 46
2019-10-04 22:00:00 19.8 0 Calma 9 Noroeste 0 918.7 0.7 51
2019-10-04 21:00:00 20.6 0 Calma 6 Nordeste 0 918.7 0.8 49
2019-10-04 20:00:00 21.3 4 Nordeste 18 Este 0 918.5 0.6 50
2019-10-04 19:00:00 23.4 8 Nordeste 24 Nordeste 0 918 -0.1 43
2019-10-04 18:00:00 24.6 11 Nordeste 29 Nordeste 0 917.9 -0.9 38
2019-10-04 17:00:00 25.4 10 Este 27 Este 0 917.9 -1.3 35
2019-10-04 16:00:00 26.6 12 Nordeste 26 Este 0 918.1 -1.5 34
2019-10-04 15:00:00 26.6 14 Este 26 Nordeste 0 918.8 -1.5 33
2019-10-04 14:00:00 27.9 9 Nordeste 23 Nordeste 0 919.2 -1.5 31
2019-10-04 13:00:00 26.4 8 Este 19 Este 0 919.6 -1.3 32
2019-10-04 12:00:00 25.9 0 Calma 8 Nordeste 0 920.3 -- 34
2019-10-04 11:00:00 24.4 0 Calma 10 Norte 0 920.7 -- 37
2019-10-04 10:00:00 21.3 2 Norte 12 Noroeste 0 920.9 -- 38
2019-10-04 09:00:00 18.5 4 Noroeste 12 Norte 0 -- -- 40
2019-10-04 08:00:00 17.1 2 Noroeste 11 Oeste 0 -- -- 39
2019-10-04 07:00:00 15.9 5 Oeste 12 Noroeste 0 -- -- 40
2019-10-04 06:00:00 16.4 0 Calma 11 Oeste 0 -- -- 40
2019-10-04 05:00:00 17.3 2 Noroeste 11 Oeste 0 -- -- 39
2019-10-04 04:00:00 17.8 5 Noroeste 13 Este 0 -- -- 38
2019-10-04 03:00:00 17.6 3 Norte 14 Norte 0 -- -- 39
2019-10-04 02:00:00 18 2 Norte 12 Norte 0 -- -- 40
2019-10-04 01:00:00 18.7 2 Noroeste 15 Norte 0 -- -- 44
2019-10-04 00:00:00 18.8 6 Noroeste 13 Norte 0 -- -- 43
2019-10-03 23:00:00 21.2 3 Norte 22 Oeste 0 -- -- 40
2019-10-03 22:00:00 21.2 5 Norte 20 Noroeste 0 -- -- 41
2019-10-03 21:00:00 21.9 5 Norte 19 Noroeste 0 -- -- 38
2019-10-03 20:00:00 22.1 0 Calma 13 Noroeste 0 -- -- 39
2019-10-03 19:00:00 24.8 5 Noroeste 13 Norte 0 -- -- 32
2019-10-03 18:00:00 26 4 Noroeste 18 Noroeste 0 -- -- 30
2019-10-03 17:00:00 27.1 4 Norte 18 Norte 0 -- -- 28
2019-10-03 16:00:00 27.7 6 Norte 27 Norte 0 -- -- 27
2019-10-03 15:00:00 27.5 5 Noroeste 19 Noroeste 0 -- -- 27
2019-10-03 14:00:00 26.9 5 Norte 22 Noroeste 0 -- -- 26
2019-10-03 13:00:00 26.2 9 Noroeste 19 Noroeste 0 -- -- 28
2019-10-03 12:00:00 25.5 5 Noroeste 18 Noroeste 0 -- -- 32
2019-10-03 11:00:00 24.1 5 Norte 15 Noroeste 0 -- -- 36
2019-10-03 10:00:00 21 0 Calma 11 Oeste 0 -- -- 40
2019-10-03 09:00:00 16.8 3 Noroeste 17 Noroeste 0 -- -- 43
2019-10-03 08:00:00 15.1 7 Noroeste 15 Norte 0 -- -- 43
2019-10-03 07:00:00 16.4 6 Noroeste 15 Noroeste 0 -- -- 41
2019-10-03 06:00:00 16.8 3 Noroeste 12 Noroeste 0 -- -- 40
2019-10-03 05:00:00 17 0 Calma 20 Noroeste 0 -- -- 39
2019-10-03 04:00:00 17.6 9 Noroeste 20 Noroeste 0 -- -- 38
2019-10-03 03:00:00 18.4 8 Noroeste 17 Noroeste 0 -- -- 38
2019-10-03 02:00:00 18.7 4 Norte 18 Norte 0 -- -- 38
2019-10-03 01:00:00 18.6 6 Noroeste 16 Norte 0 -- -- 38
2019-10-03 00:00:00 19 6 Noroeste 22 Noroeste 0 -- -- 38
2019-10-02 23:00:00 20 10 Noroeste 20 Noroeste 0 -- -- 36
2019-10-02 22:00:00 21 4 Noroeste 19 Noroeste 0 -- -- 35
2019-10-02 21:00:00 21.8 9 Noroeste 21 Noroeste 0 -- -- 34
2019-10-02 20:00:00 22.8 6 Noroeste 22 Noroeste 0 -- -- 31
2019-10-02 19:00:00 24.8 0 Calma 22 Noroeste 0 -- -- 28
2019-10-02 18:00:00 26.8 5 Noroeste 23 Noroeste 0 -- -- 25
2019-10-02 17:00:00 28 2 Norte 18 Sur 0 -- -- 23
2019-10-02 16:00:00 30.6 0 Calma 30 Noroeste 0 -- -- 21
2019-10-02 15:00:00 30 8 Norte 23 Noroeste 0 -- -- 22
2019-10-02 14:00:00 29.6 6 Noroeste 20 Noroeste 0 -- -- 22
2019-10-02 13:00:00 27.1 3 Sudoeste 26 Sudoeste 0 -- -- 27
2019-10-02 12:00:00 25.9 3 Sudoeste 21 Norte 0 -- -- 35
2019-10-02 11:00:00 23.6 8 Noroeste 25 Norte 0 -- -- 42
2019-10-02 10:00:00 20.9 8 Noroeste 21 Norte 0 -- -- 49
2019-10-02 09:00:00 17.6 4 Norte 21 Norte 0 -- -- 53
2019-10-02 08:00:00 15.8 9 Noroeste 18 Norte 0 -- -- 53
2019-10-02 07:00:00 18 2 Norte 17 Noroeste 0 -- -- 52
2019-10-02 06:00:00 17.5 2 Noroeste 10 Noroeste 0 -- -- 51
2019-10-02 05:00:00 17.6 0 Calma 23 Norte 0 -- -- 49
2019-10-02 04:00:00 19.1 6 Noroeste 24 Noroeste 0 -- -- 46
2019-10-02 03:00:00 19.5 8 Noroeste 27 Norte 0 -- -- 45
2019-10-02 02:00:00 20.2 13 Noroeste 29 Noroeste 0 -- -- 42
2019-10-02 01:00:00 20.2 14 Noroeste 31 Noroeste 0 -- -- 39
2019-10-02 00:00:00 20.5 7 Noroeste 18 Norte 0 -- -- 37
2019-10-01 23:00:00 22.1 2 Norte 21 Norte 0 -- -- 34
2019-10-01 22:00:00 22.2 8 Norte 22 Noroeste 0 -- -- 31
2019-10-01 21:00:00 23.7 8 Noroeste 23 Noroeste 0 -- -- 27
2019-10-01 20:00:00 25.4 5 Noroeste 25 Noroeste 0 -- -- 26
2019-10-01 19:00:00 26.7 8 Noroeste 24 Noroeste 0 -- -- 24
2019-10-01 18:00:00 28.4 2 Sudoeste 22 Sudoeste 0 -- -- 24
2019-10-01 17:00:00 29.7 6 Norte 24 Sudoeste 0 -- -- 24
2019-10-01 16:00:00 30.5 6 Sur 23 Sur 0 -- -- 23
2019-10-01 15:00:00 31.1 9 Sur 27 Sudoeste 0 -- -- 23
2019-10-01 14:00:00 30.7 7 Sur 19 Sur 0 -- -- 24
2019-10-01 13:00:00 30.1 4 Sur 23 Sudoeste 0 -- -- 27
2019-10-01 12:00:00 28.8 6 Sudoeste 29 Norte 0 -- -- 29
2019-10-01 11:00:00 26.1 6 Noroeste 21 Noroeste 0 -- -- 31
2019-10-01 10:00:00 26.2 0 Calma 13 Oeste 0 -- -- 31
2019-10-01 09:00:00 21.3 3 Oeste 10 Oeste 0 -- -- 32
2019-10-01 08:00:00 21 4 Oeste 11 Oeste 0 -- -- 33
2019-10-01 07:00:00 20.3 3 Oeste 14 Oeste 0 -- -- 34
2019-10-01 06:00:00 18.5 0 Calma 10 Noroeste 0 -- -- 35
2019-10-01 05:00:00 20.2 0 Calma 6 Noroeste 0 -- -- 34
2019-10-01 04:00:00 19.6 0 Calma 9 Noroeste 0 -- -- 35
2019-10-01 03:00:00 20.1 0 Calma 6 Noroeste 0 -- -- 35
2019-10-01 02:00:00 19 0 Calma 10 Oeste 0 -- -- 35
2019-10-01 01:00:00 20.6 8 Oeste 16 Norte 0 -- -- 32
2019-10-01 00:00:00 23.4 2 Noroeste 14 Norte 0 -- -- 31
2019-09-30 23:00:00 23.3 0 Calma 10 Norte 0 -- -- 31
2019-09-30 22:00:00 23.4 0 Calma 6 Oeste 0 -- -- 37
2019-09-30 21:00:00 22.5 0 Calma 4 Nordeste 0 -- -- 53
2019-09-30 20:00:00 24.5 0 Calma 19 Sudeste 0 -- -- 41
2019-09-30 19:00:00 26.1 4 Este 19 Sudeste 0 -- -- 34
2019-09-30 18:00:00 27.6 6 Este 22 Nordeste 0 -- -- 34
2019-09-30 17:00:00 28.5 7 Nordeste 19 Nordeste 0 -- -- 31
2019-09-30 16:00:00 30.4 6 Nordeste 18 Este 0 -- -- 30
2019-09-30 15:00:00 29.4 10 Este 22 Nordeste 0 -- -- 30
2019-09-30 14:00:00 27.8 7 Nordeste 21 Nordeste 0 -- -- 30
2019-09-30 13:00:00 29.2 7 Nordeste 21 Nordeste 0 -- -- 29
2019-09-30 12:00:00 28.5 0 Calma 5 Nordeste 0 -- -- 31
2019-09-30 11:00:00 26.6 0 Calma 5 Sudoeste 0 -- -- 33
2019-09-30 10:00:00 23.7 0 Calma 9 Noroeste 0 -- -- 35
2019-09-30 09:00:00 21.3 0 Calma 13 Oeste 0 -- -- 36
2019-09-30 08:00:00 19.4 2 Oeste 13 Oeste 0 -- -- 38
2019-09-30 07:00:00 20.5 0 Calma 11 Norte 0 -- -- 38
2019-09-30 06:00:00 20.3 0 Calma 13 Norte 0 -- -- 38
2019-09-30 05:00:00 19.7 0 Calma 13 Noroeste 0 -- -- 37
2019-09-30 04:00:00 20 3 Noroeste 12 Noroeste 0 -- -- 36
2019-09-30 03:00:00 21.6 0 Calma 11 Este 0 -- -- 37
2019-09-30 02:00:00 21.8 4 Noroeste 17 Norte 0 -- -- 38
2019-09-30 01:00:00 22.6 0 Calma 12 Noroeste 0 -- -- 37
2019-09-30 00:00:00 22.6 0 Calma 8 Oeste 0 -- -- 39
2019-09-29 23:00:00 22.4 0 Calma 6 Oeste 0 -- -- 48
2019-09-29 22:00:00 21.9 0 Calma 4 Noroeste 0 -- -- 50
2019-09-29 21:00:00 22.6 0 Calma 4 Nordeste 0 -- -- 49
2019-09-29 20:00:00 23.6 0 Calma 15 Este 0 -- -- 48
2019-09-29 19:00:00 25.4 8 Este 26 Sudeste 0 -- -- 45
2019-09-29 18:00:00 25.8 12 Sudeste 26 Sudeste 0 -- -- 47
2019-09-29 17:00:00 27.4 12 Este 36 Nordeste 0 -- -- 41
2019-09-29 16:00:00 29.6 8 Este 24 Este 0 -- -- 37
2019-09-29 15:00:00 28.5 11 Nordeste 28 Nordeste 0 -- -- 35
2019-09-29 14:00:00 28.9 9 Este 25 Nordeste 0 -- -- 32
2019-09-29 13:00:00 28.8 8 Este 19 Este 0 -- -- 32
2019-09-29 12:00:00 27.9 6 Este 12 Nordeste 0 -- -- 29
2019-09-29 11:00:00 27.6 0 Calma 4 Nordeste 0 -- -- 33
2019-09-29 10:00:00 24.1 0 Calma 6 Noroeste 0 -- -- 41
2019-09-29 09:00:00 20.5 0 Calma 10 Noroeste 0 -- -- 40
2019-09-29 08:00:00 17.2 0 Calma 9 Noroeste 0 -- -- 44
2019-09-29 07:00:00 18.1 0 Calma 12 Noroeste 0 -- -- 43
2019-09-29 06:00:00 17 5 Noroeste 10 Noroeste 0 -- -- 54
2019-09-29 05:00:00 16.5 0 Calma 10 Oeste 0 -- -- 61
2019-09-29 04:00:00 17.2 0 Calma 6 Norte 0 -- -- 66
2019-09-29 03:00:00 17.1 0 Calma 4 Noroeste 0 -- -- 70
2019-09-29 02:00:00 18.4 0 Calma 3 Noroeste 0 -- -- 63
2019-09-29 01:00:00 18.9 0 Calma 4 Norte 0 -- -- 57
2019-09-29 00:00:00 19.6 0 Calma 2 Noroeste 0 -- -- 63
2019-09-28 23:00:00 20.6 0 Calma 0 Calma 0 -- -- 56
2019-09-28 22:00:00 21.4 0 Calma 3 Noroeste 0 -- -- 58
2019-09-28 21:00:00 21.9 0 Calma 13 Nordeste 0 -- -- 67
2019-09-28 20:00:00 23.3 4 Este 24 Este 0 -- -- 53
2019-09-28 19:00:00 25 8 Este 24 Este 0 -- -- 48
2019-09-28 18:00:00 26.3 10 Este 31 Sudeste 0 -- -- 42
2019-09-28 17:00:00 26.9 14 Este 31 Este 0 -- -- 38
2019-09-28 16:00:00 27.8 13 Nordeste 33 Nordeste 0 -- -- 37
2019-09-28 15:00:00 27.9 12 Este 31 Norte 0 -- -- 37
2019-09-28 14:00:00 27.6 13 Nordeste 29 Nordeste 0 -- -- 35
2019-09-28 13:00:00 28.1 8 Nordeste 21 Nordeste 0 -- -- 34
2019-09-28 12:00:00 27.7 2 Nordeste 9 Este 0 -- -- 33
2019-09-28 11:00:00 26.1 0 Calma 6 Nordeste 0 -- -- 36
2019-09-28 10:00:00 23.5 0 Calma 7 Noroeste 0 -- -- 41
2019-09-28 09:00:00 20.8 0 Calma 12 Noroeste 0 -- -- 47
2019-09-28 08:00:00 18.8 0 Calma 12 Noroeste 0 -- -- 48
2019-09-28 07:00:00 18.9 0 Calma 9 Noroeste 0 -- -- 48
2019-09-28 06:00:00 19.2 0 Calma 10 Noroeste 0 -- -- 46
2019-09-28 05:00:00 20 0 Calma 13 Noroeste 0 -- -- 45
2019-09-28 04:00:00 19.7 7 Oeste 11 Oeste 0 -- -- 46
2019-09-28 03:00:00 19.6 4 Noroeste 12 Oeste 0 -- -- 46
2019-09-28 02:00:00 20 5 Noroeste 12 Noroeste 0 -- -- 47
2019-09-28 01:00:00 20.8 0 Calma 9 Oeste 0 -- -- 46
2019-09-28 00:00:00 22.1 0 Calma 9 Oeste 0 -- -- 44
2019-09-27 23:00:00 22.2 0 Calma 8 Noroeste 0 -- -- 44
2019-09-27 22:00:00 22.5 0 Calma 6 Norte 0 -- -- 46
2019-09-27 21:00:00 23 0 Calma 3 Noroeste 0 -- -- 48
2019-09-27 20:00:00 24 0 Calma 19 Este 0 -- -- 47
2019-09-27 19:00:00 25.5 6 Este 20 Nordeste 0 -- -- 43
2019-09-27 18:00:00 26.5 8 Este 20 Este 0 -- -- 41
2019-09-27 17:00:00 27.6 8 Este 21 Este 0 -- -- 37
2019-09-27 16:00:00 28.2 9 Nordeste 22 Este 0 -- -- 34
2019-09-27 15:00:00 28.7 9 Nordeste 24 Este 0 -- -- 35
2019-09-27 14:00:00 28.9 8 Este 22 Este 0 -- -- 31
2019-09-27 13:00:00 29.1 3 Sudeste 13 Este 0 -- -- 28
2019-09-27 12:00:00 28.2 2 Norte 11 Norte 0 -- -- 30
2019-09-27 11:00:00 27.7 0 Calma 12 Noroeste 0 -- -- 36
2019-09-27 10:00:00 23.5 0 Calma 19 Noroeste 0 -- -- 41
2019-09-27 09:00:00 20.8 5 Noroeste 15 Noroeste 0 -- -- 45
2019-09-27 08:00:00 19.7 0 Calma 12 Oeste 0 -- -- 46
2019-09-27 07:00:00 19 0 Calma 12 Oeste 0 -- -- 49
2019-09-27 06:00:00 17.9 0 Calma 8 Oeste 0 -- -- 53
2019-09-27 05:00:00 18.6 3 Oeste 7 Oeste 0 -- -- 59
2019-09-27 04:00:00 18 3 Noroeste 12 Oeste 0 -- -- 68
2019-09-27 03:00:00 17.3 0 Calma 4 Noroeste 0 -- -- 61
2019-09-27 02:00:00 18.1 0 Calma 0 Calma 0 -- -- 59
2019-09-27 01:00:00 18.7 0 Calma 3 Oeste 0 -- -- 75
2019-09-27 00:00:00 18.8 0 Calma 5 Norte 0 -- -- 67
2019-09-26 23:00:00 19.9 0 Calma 4 Noroeste 0 -- -- 59
2019-09-26 22:00:00 20.5 0 Calma 0 Calma 0 -- -- 66
2019-09-26 21:00:00 21.5 0 Calma 12 Nordeste 0 -- -- 67
2019-09-26 20:00:00 22.5 3 Nordeste 22 Este 0 -- -- 61
2019-09-26 19:00:00 24.1 9 Este 23 Nordeste 0 -- -- 55
2019-09-26 18:00:00 25.2 10 Nordeste 26 Este 0 -- -- 48
2019-09-26 17:00:00 26.1 12 Este 27 Nordeste 0 -- -- 44
2019-09-26 16:00:00 26.8 9 Este 27 Este 0 -- -- 40
2019-09-26 15:00:00 26.4 11 Este 27 Este 0 -- -- 38
2019-09-26 14:00:00 26.9 12 Este 32 Sudeste 0 -- -- 38
2019-09-26 13:00:00 26.4 10 Este 25 Este 0 -- -- 39
2019-09-26 12:00:00 25.1 9 Este 22 Este 0 -- -- 41
2019-09-26 11:00:00 24.2 2 Nordeste 14 Nordeste 0 -- -- 42
2019-09-26 10:00:00 21.2 0 Calma 0 Calma 0 -- -- 51
2019-09-26 09:00:00 18 0 Calma 7 Oeste 0 -- -- 57
2019-09-26 08:00:00 15.4 2 Noroeste 8 Oeste 0 -- -- 61
2019-09-26 07:00:00 15.6 7 Noroeste 12 Noroeste 0 -- -- 60
2019-09-26 06:00:00 16.5 3 Oeste 10 Noroeste 0 -- -- 59
2019-09-26 05:00:00 16.8 0 Calma 6 Noroeste 0 -- -- 57
2019-09-26 04:00:00 18.1 0 Calma 9 Noroeste 0 -- -- 54
2019-09-26 03:00:00 18.9 0 Calma 11 Norte 0 -- -- 53
2019-09-26 02:00:00 19.3 0 Calma 11 Noroeste 0 -- -- 53
2019-09-26 01:00:00 19.9 2 Norte 13 Noroeste 0 -- -- 50
2019-09-26 00:00:00 20.7 3 Norte 14 Noroeste 0 -- -- 49
2019-09-25 23:00:00 21.6 4 Noroeste 13 Noroeste 0 -- -- 46
2019-09-25 22:00:00 22.4 0 Calma 6 Oeste 0 -- -- 42
2019-09-25 21:00:00 23.1 0 Calma 4 Norte 0 -- -- 39
2019-09-25 20:00:00 24.4 0 Calma 17 Este 0 -- -- 36
2019-09-25 19:00:00 25.9 7 Nordeste 24 Este 0 -- -- 35
2019-09-25 18:00:00 27.1 7 Nordeste 25 Nordeste 0 -- -- 35
2019-09-25 17:00:00 28 9 Nordeste 24 Nordeste 0 -- -- 32
2019-09-25 16:00:00 29.5 6 Nordeste 22 Nordeste 0 -- -- 30
2019-09-25 15:00:00 30.7 2 Norte 13 Norte 0 -- -- 31
2019-09-25 14:00:00 29.3 2 Noroeste 18 Norte 0 -- -- 32
2019-09-25 13:00:00 28.9 4 Norte 18 Oeste 0 -- -- 31
2019-09-25 12:00:00 27.7 4 Noroeste 14 Norte 0 -- -- 31
2019-09-25 11:00:00 27 4 Norte 15 Norte 0 -- -- 34
2019-09-25 10:00:00 23.7 0 Calma 10 Noroeste 0 -- -- 38
2019-09-25 09:00:00 21 5 Noroeste 18 Oeste 0 -- -- 42
2019-09-25 08:00:00 18.4 4 Noroeste 18 Noroeste 0 -- -- 45
2019-09-25 07:00:00 18.1 8 Noroeste 16 Noroeste 0 -- -- 46
2019-09-25 06:00:00 19.4 2 Noroeste 19 Norte 0 -- -- 42
2019-09-25 05:00:00 19.9 2 Noroeste 16 Noroeste 0 -- -- 42
2019-09-25 04:00:00 20 6 Noroeste 21 Norte 0 -- -- 43
2019-09-25 03:00:00 20.1 8 Noroeste 19 Noroeste 0 -- -- 44
2019-09-25 02:00:00 19.9 7 Noroeste 19 Noroeste 0 -- -- 45
2019-09-25 01:00:00 20.2 6 Noroeste 15 Oeste 0 -- -- 45
2019-09-25 00:00:00 21.1 5 Noroeste 20 Noroeste 0 -- -- 42
2019-09-24 23:00:00 22.6 6 Noroeste 15 Norte 0 -- -- 41
2019-09-24 22:00:00 22.3 0 Calma 4 Noroeste 0 -- -- 42
2019-09-24 21:00:00 23 0 Calma 8 Nordeste 0 -- -- 42
2019-09-24 20:00:00 24 0 Calma 16 Nordeste 0 -- -- 38
2019-09-24 19:00:00 25.6 6 Nordeste 20 Nordeste 0 -- -- 36
2019-09-24 18:00:00 26.6 9 Nordeste 24 Nordeste 0 -- -- 35
2019-09-24 17:00:00 27.5 10 Nordeste 27 Nordeste 0 -- -- 31
2019-09-24 16:00:00 31.5 0 Calma 19 Sur 0 -- -- 22
2019-09-24 15:00:00 30 3 Sudoeste 20 Norte 0 -- -- 22
2019-09-24 14:00:00 30.5 3 Oeste 27 Noroeste 0 -- -- 23
2019-09-24 13:00:00 28.9 5 Noroeste 19 Noroeste 0 -- -- 24
2019-09-24 12:00:00 27.6 8 Noroeste 18 Norte 0 -- -- 31
2019-09-24 11:00:00 26.8 5 Noroeste 15 Norte 0 -- -- 31
2019-09-24 10:00:00 23.9 3 Noroeste 15 Noroeste 0 -- -- 38
2019-09-24 09:00:00 20.7 0 Calma 13 Oeste 0 -- -- 42
2019-09-24 08:00:00 17.8 5 Oeste 14 Oeste 0 -- -- 48
2019-09-24 07:00:00 19 3 Noroeste 14 Oeste 0 -- -- 44
2019-09-24 06:00:00 17.6 5 Oeste 14 Noroeste 0 -- -- 50
2019-09-24 05:00:00 17.5 0 Calma 8 Oeste 0 -- -- 53
2019-09-24 04:00:00 18.2 0 Calma 9 Oeste 0 -- -- 53
2019-09-24 03:00:00 19 0 Calma 10 Norte 0 -- -- 52
2019-09-24 02:00:00 18 0 Calma 9 Oeste 0 -- -- 57
2019-09-24 01:00:00 18.3 0 Calma 7 Oeste 0 -- -- 64
2019-09-24 00:00:00 19.1 0 Calma 4 Oeste 0 -- -- 63
2019-09-23 23:00:00 18.7 0 Calma 3 Oeste 0 -- -- 66
2019-09-23 22:00:00 19.5 0 Calma 5 Este 0 -- -- 62
2019-09-23 21:00:00 20.3 0 Calma 12 Nordeste 0 -- -- 58
2019-09-23 20:00:00 21.1 4 Este 17 Este 0 -- -- 55
2019-09-23 19:00:00 22.5 6 Nordeste 23 Este 0 -- -- 51
2019-09-23 18:00:00 23.6 9 Nordeste 24 Nordeste 0 -- -- 50
2019-09-23 17:00:00 24.4 10 Nordeste 25 Sudeste 0 -- -- 49
2019-09-23 16:00:00 24.9 10 Este 30 Este 0 -- -- 47
2019-09-23 15:00:00 25.5 8 Este 27 Nordeste 0 -- -- 46
2019-09-23 14:00:00 24.9 10 Nordeste 27 Este 0 -- -- 46
2019-09-23 13:00:00 23.6 13 Nordeste 23 Este 0 -- -- 49
2019-09-23 12:00:00 22.6 8 Nordeste 19 Este 0 -- -- 51
2019-09-23 11:00:00 22.4 0 Calma 9 Nordeste 0 -- -- 51
2019-09-23 10:00:00 18.9 0 Calma 7 Noroeste 0 -- -- 58
2019-09-23 09:00:00 17.1 0 Calma 14 Norte 0 -- -- 64
2019-09-23 08:00:00 14.9 0 Calma 12 Norte 0 -- -- 71
2019-09-23 07:00:00 15.2 0 Calma 10 Norte 0 -- -- 70
2019-09-23 06:00:00 15.7 0 Calma 13 Noroeste 0 -- -- 68
2019-09-23 05:00:00 16.4 0 Calma 12 Noroeste 0 -- -- 68
2019-09-23 04:00:00 16.9 0 Calma 13 Noroeste 0 -- -- 69
2019-09-23 03:00:00 17.3 3 Noroeste 12 Noroeste 0 -- -- 69
2019-09-23 02:00:00 18.1 0 Calma 16 Noroeste 0 -- -- 67
2019-09-23 01:00:00 18.7 6 Noroeste 15 Noroeste 0 -- -- 64
2019-09-23 00:00:00 19.5 6 Noroeste 15 Norte 0 -- -- 56
2019-09-22 23:00:00 20.4 5 Norte 16 Noroeste 0 -- -- 51
2019-09-22 22:00:00 21.3 4 Norte 15 Noroeste 0 -- -- 48
2019-09-22 21:00:00 22.2 6 Noroeste 17 Noroeste 0 -- -- 46
2019-09-22 20:00:00 23.6 5 Noroeste 18 Noroeste 0 -- -- 42
2019-09-22 19:00:00 25.3 5 Noroeste 20 Noroeste 0 -- -- 38
2019-09-22 18:00:00 26.5 6 Noroeste 21 Norte 0 -- -- 38
2019-09-22 17:00:00 27.1 5 Noroeste 19 Noroeste 0 -- -- 38
2019-09-22 16:00:00 27.6 5 Noroeste 17 Sudoeste 0 -- -- 36
2019-09-22 15:00:00 28.8 0 Calma 16 Norte 0 -- -- 31
2019-09-22 14:00:00 28.4 0 Calma 15 Noroeste 0 -- -- 31
2019-09-22 13:00:00 26.9 5 Norte 19 Noroeste 0 -- -- 33
2019-09-22 12:00:00 24.4 3 Norte 17 Noroeste 0 -- -- 40
2019-09-22 11:00:00 23.8 5 Noroeste 18 Noroeste 0 -- -- 41
2019-09-22 10:00:00 22.5 7 Noroeste 18 Noroeste 0 -- -- 47
2019-09-22 09:00:00 19 3 Norte 15 Noroeste 0 -- -- 61
2019-09-22 08:00:00 16.7 2 Oeste 12 Oeste 0 -- -- 76
2019-09-22 07:00:00 17.9 0 Calma 11 Oeste 0 -- -- 71
2019-09-22 06:00:00 17.4 3 Noroeste 11 Norte 0 -- -- 74
2019-09-22 05:00:00 18.1 0 Calma 8 Oeste 0 -- -- 68
2019-09-22 04:00:00 18.7 0 Calma 5 Oeste 0 -- -- 68
2019-09-22 03:00:00 19.2 0 Calma 3 Norte 0 -- -- 67
2019-09-22 02:00:00 19.8 0 Calma 4 Oeste 0 -- -- 64
2019-09-22 01:00:00 20.5 0 Calma 5 Noroeste 0 -- -- 61
2019-09-22 00:00:00 20 0 Calma 4 Norte 0 -- -- 87
2019-09-21 23:00:00 19.9 0 Calma 0 Calma 0 -- -- 90
2019-09-21 22:00:00 20.1 0 Calma 21 Nordeste 0 -- -- 89
2019-09-21 21:00:00 19.8 6 Este 18 Este 0 -- -- 89
2019-09-21 20:00:00 20.3 7 Este 19 Este 0 -- -- 86
2019-09-21 19:00:00 21.3 8 Este 18 Este 0 -- -- 76
2019-09-21 18:00:00 21.8 7 Nordeste 26 Nordeste 0 -- -- 71
2019-09-21 17:00:00 23.1 10 Este 21 Este 0 -- -- 61
2019-09-21 16:00:00 24.3 6 Nordeste 22 Nordeste 0 -- -- 54
2019-09-21 15:00:00 23.2 8 Este 30 Nordeste 0 -- -- 57
2019-09-21 14:00:00 23.5 10 Nordeste 26 Nordeste 0 -- -- 55
2019-09-21 13:00:00 22.6 13 Nordeste 25 Nordeste 0 -- -- 59
2019-09-21 12:00:00 21.5 9 Nordeste 22 Nordeste 0 -- -- 66
2019-09-21 11:00:00 19.9 6 Este 18 Nordeste 0 -- -- 73
2019-09-21 10:00:00 20.4 4 Este 12 Este 0 -- -- 65
2019-09-21 09:00:00 19.4 0 Calma 10 Oeste 0 -- -- 64
2019-09-21 08:00:00 17.5 0 Calma 3 Nordeste 0 -- -- 83
2019-09-21 07:00:00 17.8 0 Calma 5 Noroeste 0 -- -- 78
2019-09-21 06:00:00 17.3 0 Calma 2 Oeste 0 -- -- 83
2019-09-21 05:00:00 17.1 0 Calma 4 Noroeste 0 -- -- 81
2019-09-21 04:00:00 17.5 0 Calma 0 Calma 0 -- -- 90
2019-09-21 03:00:00 17.9 0 Calma 8 Este 0 -- -- 86
2019-09-21 02:00:00 18.4 5 Nordeste 22 Nordeste 0 -- -- 85
2019-09-21 01:00:00 18.9 10 Nordeste 26 Nordeste 0 -- -- 82
2019-09-21 00:00:00 18.9 13 Nordeste 28 Este 0 -- -- 83
2019-09-20 23:00:00 19 14 Este 29 Este 0 -- -- 87
2019-09-20 22:00:00 19.3 12 Este 28 Este 0 -- -- 85
2019-09-20 21:00:00 19.5 15 Este 33 Este 0 -- -- 84
2019-09-20 20:00:00 20.8 14 Nordeste 31 Este 0 -- -- 71
2019-09-20 19:00:00 21.4 15 Este 32 Este 0 -- -- 68
2019-09-20 18:00:00 22.9 13 Nordeste 37 Este 0 -- -- 57
2019-09-20 17:00:00 23.1 18 Este 36 Nordeste 0 -- -- 55
2019-09-20 16:00:00 24.5 17 Nordeste 41 Nordeste 0 -- -- 49
2019-09-20 15:00:00 23 19 Nordeste 45 Nordeste 0 -- -- 51
2019-09-20 14:00:00 21.9 15 Este 34 Este 0 -- -- 57
2019-09-20 13:00:00 20.9 18 Este 36 Este 0 -- -- 63
2019-09-20 12:00:00 20.4 16 Este 32 Este 0 -- -- 63
2019-09-20 11:00:00 20 11 Nordeste 26 Nordeste 0 -- -- 68
2019-09-20 10:00:00 18.9 0 Calma 6 Nordeste 0 -- -- 83
2019-09-20 09:00:00 17.7 0 Calma 0 Calma 0 -- -- 92
2019-09-20 08:00:00 16.9 0 Calma 4 Este 0 -- -- 93
2019-09-20 07:00:00 17.4 0 Calma 16 Este 0 -- -- 92
2019-09-20 06:00:00 17.6 4 Nordeste 26 Nordeste 0 -- -- 90
2019-09-20 05:00:00 17.8 14 Nordeste 26 Nordeste 0 -- -- 92
2019-09-20 04:00:00 17.9 8 Nordeste 25 Este 0 -- -- 94
2019-09-20 03:00:00 18.1 10 Este 32 Este 0 -- -- 93
2019-09-20 02:00:00 18.5 0 Calma 7 Nordeste 0 -- -- 90
2019-09-20 01:00:00 18.7 0 Calma 3 Nordeste 0 -- -- 85
2019-09-20 00:00:00 19.2 0 Calma 13 Nordeste 0 -- -- 84
2019-09-19 23:00:00 19.8 5 Este 16 Este 0 -- -- 90
2019-09-19 22:00:00 20.3 6 Este 20 Este 0 -- -- 85
2019-09-19 21:00:00 21.1 9 Nordeste 20 Este 0 -- -- 80
2019-09-19 20:00:00 22.1 9 Este 26 Este 0 -- -- 71
2019-09-19 19:00:00 23.2 13 Nordeste 34 Nordeste 0 -- -- 63
2019-09-19 18:00:00 23.7 14 Nordeste 32 Este 0 -- -- 57
2019-09-19 17:00:00 24.9 13 Nordeste 35 Nordeste 0 -- -- 51
2019-09-19 16:00:00 25.4 15 Nordeste 35 Este 0 -- -- 49
2019-09-19 15:00:00 26.1 15 Este 34 Este 0 -- -- 45
2019-09-19 14:00:00 25.8 13 Nordeste 32 Nordeste 0 -- -- 46
2019-09-19 13:00:00 25.6 14 Este 26 Este 0 -- -- 46
2019-09-19 12:00:00 24.9 9 Nordeste 23 Nordeste 0 -- -- 47
2019-09-19 11:00:00 23.8 3 Nordeste 12 Este 0 -- -- 51
2019-09-19 10:00:00 22.3 0 Calma 9 Norte 0 -- -- 54
2019-09-19 09:00:00 19.9 0 Calma 10 Oeste 0 -- -- 61
2019-09-19 08:00:00 17.1 0 Calma 9 Oeste 0 -- -- 72
2019-09-19 07:00:00 16.5 4 Oeste 13 Oeste 0 -- -- 77
2019-09-19 06:00:00 17.4 0 Calma 3 Noroeste 0 -- -- 75
2019-09-19 05:00:00 17.4 0 Calma 5 Oeste 0 -- -- 79
2019-09-19 04:00:00 18 0 Calma 2 Oeste 0 -- -- 74
2019-09-19 03:00:00 17.9 0 Calma 0 Calma 0 -- -- 77
2019-09-19 02:00:00 18.9 0 Calma 0 Calma 0 -- -- 71
2019-09-19 01:00:00 19.8 0 Calma 5 Noroeste 0 -- -- 65
2019-09-19 00:00:00 19.7 0 Calma 6 Norte 0 -- -- 67
2019-09-18 23:00:00 20 0 Calma 4 Noroeste 0 -- -- 66
2019-09-18 22:00:00 20.7 0 Calma 12 Nordeste 0 -- -- 66
2019-09-18 21:00:00 21.2 4 Nordeste 15 Nordeste 0 -- -- 60
2019-09-18 20:00:00 22.8 4 Nordeste 24 Nordeste 0 -- -- 52
2019-09-18 19:00:00 24.1 11 Nordeste 27 Este 0 -- -- 46
2019-09-18 18:00:00 25.2 11 Nordeste 27 Nordeste 0 -- -- 42
2019-09-18 17:00:00 26.2 13 Este 27 Este 0 -- -- 39
2019-09-18 16:00:00 27 11 Nordeste 25 Este 0 -- -- 38
2019-09-18 15:00:00 27.4 10 Nordeste 23 Nordeste 0 -- -- 38
2019-09-18 14:00:00 27 11 Nordeste 24 Nordeste 0 -- -- 38
2019-09-18 13:00:00 26.5 8 Nordeste 22 Nordeste 0 -- -- 36
2019-09-18 12:00:00 25.3 7 Nordeste 18 Este 0 -- -- 42
2019-09-18 11:00:00 23.7 4 Este 14 Este 0 -- -- 46
2019-09-18 10:00:00 22.3 0 Calma 7 Norte 0 -- -- 55
2019-09-18 09:00:00 20.4 0 Calma 11 Oeste 0 -- -- 53
2019-09-18 08:00:00 16.9 0 Calma 13 Noroeste 0 -- -- 63
2019-09-18 07:00:00 18.1 0 Calma 13 Norte 0 -- -- 56
2019-09-18 06:00:00 17.4 0 Calma 7 Oeste 0 -- -- 71
2019-09-18 05:00:00 16.8 0 Calma 11 Noroeste 0 -- -- 86
2019-09-18 04:00:00 17.5 0 Calma 6 Noroeste 0 -- -- 75
2019-09-18 03:00:00 17.4 0 Calma 4 Noroeste 0 -- -- 75
2019-09-18 02:00:00 18.1 0 Calma 6 Noroeste 0 -- -- 76
2019-09-18 01:00:00 18.3 0 Calma 8 Norte 0 -- -- 68
2019-09-18 00:00:00 19 0 Calma 8 Noroeste 0 -- -- 69
2019-09-17 23:00:00 19.4 0 Calma 20 Este 0 -- -- 86
2019-09-17 22:00:00 20.2 5 Nordeste 22 Este 0 -- -- 82
2019-09-17 21:00:00 21.8 3 Este 8 Este 0 -- -- 61